KGCK/GCK METAR and TAF weather

Enter ICAO airport designator
Station Type Date Time Source
KGCK METAR 2019/08/21 02:54 UTC NOAA

KGCK 210254Z AUTO 13012KT 10SM CLR 26/12 A3000 RMK AO2 SLP121 T02610122 51020


Station Type Date Time Source
KGCK Decoded METAR 2019/08/21 02:54 UTC NOAA

Station name not available
Aug 20, 2019 - 10:54 PM EDT / 2019.08.21 0254 UTC
Wind: from the SE (130 degrees) at 14 MPH (12 KT):0
Visibility: 10 mile(s):0
Sky conditions: clear
Temperature: 79.0 F (26.1 C)
Dew Point: 54.0 F (12.2 C)
Relative Humidity: 42%
Pressure (altimeter): 30 in. Hg (1015 hPa)
Pressure tendency: 0.06 inches (2.0 hPa) higher than three hours ago
ob: KGCK 210254Z AUTO 13012KT 10SM CLR 26/12 A3000 RMK AO2 SLP121 T02610122 51020
cycle: 3

Station Type Date Time Source
KGCK TAF 2019/08/21 03:59 UTC NOAA

TAF
AMD KGCK 210259Z 2103/2124 12018G26KT P6SM FEW250
FM210600 13010KT P6SM FEW250
FM211400 24012KT P6SM SCT250

Example: see airport list